Portada
METAR-TAF:

METAR-TAF

Aeroports :

Doha, Qatar

latitud: 25-16-23N, longitud: 51-36-29E, altitud: 4 m

Observació

L'informe es va fer fa 20 minuts, a les 07:00 UTC
Vent 16 kt del Nord/Nord-Oest
Temperatura 23°C
Humitat 41%
Pressió 1017 hPa
Visibilitat 10 km o més
sense núvols per sota de 1500 mi sense presència de cumulonimbus.

METAR: OTHH 280700Z AUTO 33016KT CAVOK 23/09 Q1017 NOSIG

Hora: 10:20 (07:20 UTC)

Pronòstic

L'informe es va fer fa 2 hores i 24 minuts, a les 04:56 UTC
Pronòstic vàlid del 28 a les 06 UTC al 29 a les 12 UTC
Vent 15 kt del Nord-Oest
Visibilitat: 9000 m
Evolucionant progressivament
l' 28 a les 20 UTC al 29 a les 22 UTC
Vent 8 kt del Oest/Nord-Oest

TAF: OTHH 280456Z 2806/2912 32015KT 9000 NSC BECMG 2820/2922 30008KT

Observacions i pronòstics meteorològics de més de 4000 aeroports (METAR i TAF).

Les estacions disponibles són els punts grocs i vermells al mapa.

Posi el ratolí al punt desitjat per veure el nom de l'estació.

Feu clic per veure les observacions i els pronòstics meteorològics.

Per canviar el mapa: feu clic els botons verds amb una creu de color negre per apropar; al botó verd amb un guió per allunyar la imatge; o en les fletxes verdes per a mapes adjacents.


METAR-TAF: